Time;durP1;ratioP1;P1;durP2;ratioP2;P2;SDS_P1;SDS_P2;PMS_P1;PMS_P2;Temp;Humidity;BMP_temperature;BMP_pressure;BME280_temperature;BME280_humidity;BME280_pressure;Samples;Min_cycle;Max_cycle;Signal;HPM_P1;HPM_P2
2024/03/19 00:01:44;;;;;;;0.68;0.38;;;17.90;57.40;;;;;;6184145;23;20572;-83
2024/03/19 00:04:10;;;;;;;0.80;0.32;;;17.80;57.60;;;;;;6184250;23;20151;-84
2024/03/19 00:06:36;;;;;;;1.58;0.50;;;17.80;57.50;;;;;;6159348;23;20626;-84
2024/03/19 00:09:03;;;;;;;0.20;0.20;;;17.80;57.50;;;;;;6185923;23;20453;-84
2024/03/19 00:11:30;;;;;;;0.85;0.38;;;17.90;57.40;;;;;;6183735;23;20170;-84
2024/03/19 00:13:56;;;;;;;0.73;0.40;;;17.80;57.40;;;;;;6159329;23;20157;-84
2024/03/19 00:16:22;;;;;;;1.92;0.50;;;17.80;57.60;;;;;;6184148;23;20139;-84
2024/03/19 00:18:48;;;;;;;0.52;0.30;;;17.80;57.30;;;;;;6183501;23;20154;-83
2024/03/19 00:21:14;;;;;;;0.80;0.30;;;17.80;57.40;;;;;;6183894;23;20135;-84
2024/03/19 00:23:44;;;;;;;0.60;0.32;;;17.80;57.50;;;;;;6183833;23;20142;-84
2024/03/19 00:26:10;;;;;;;0.40;0.32;;;17.80;57.50;;;;;;6184083;23;20143;-84
2024/03/19 00:28:36;;;;;;;4.32;0.77;;;17.80;57.60;;;;;;6183680;23;20154;-83
2024/03/19 00:31:03;;;;;;;0.55;0.30;;;17.80;57.50;;;;;;6183474;23;20609;-84
2024/03/19 00:33:28;;;;;;;1.65;0.50;;;17.80;57.30;;;;;;6183683;23;20142;-84
2024/03/19 00:35:56;;;;;;;0.50;0.30;;;17.80;57.30;;;;;;6184034;23;20143;-83
2024/03/19 00:38:22;;;;;;;1.45;0.63;;;17.80;57.50;;;;;;6183751;23;20151;-83
2024/03/19 00:40:48;;;;;;;0.32;0.30;;;17.80;57.50;;;;;;6183833;23;20596;-83
2024/03/19 00:43:14;;;;;;;1.48;0.50;;;17.80;57.40;;;;;;6183796;23;20145;-84
2024/03/19 00:45:40;;;;;;;1.20;0.50;;;17.80;57.50;;;;;;6159184;23;20497;-84
2024/03/19 00:48:06;;;;;;;0.75;0.40;;;17.80;57.70;;;;;;6184026;23;20145;-84
2024/03/19 00:50:32;;;;;;;1.48;0.40;;;17.80;57.50;;;;;;6183348;23;20499;-83
2024/03/19 00:52:58;;;;;;;1.65;0.40;;;17.80;57.50;;;;;;6183974;23;20193;-84
2024/03/19 00:55:28;;;;;;;1.10;0.40;;;17.70;57.60;;;;;;6157916;23;20146;-83
2024/03/19 00:57:55;;;;;;;1.42;0.52;;;17.70;57.60;;;;;;6182641;23;20151;-84
2024/03/19 01:00:22;;;;;;;0.50;0.30;;;17.80;57.70;;;;;;6183691;23;20938;-83
2024/03/19 01:02:49;;;;;;;0.90;0.30;;;17.80;57.50;;;;;;6184822;23;20190;-83
2024/03/19 01:05:17;;;;;;;1.67;0.55;;;17.80;57.70;;;;;;6183748;23;20154;-84
2024/03/19 01:07:43;;;;;;;1.67;0.40;;;17.70;57.50;;;;;;6157718;23;20159;-84
2024/03/19 01:10:09;;;;;;;1.65;0.50;;;17.80;57.70;;;;;;6183386;23;20270;-83
2024/03/19 01:12:36;;;;;;;0.57;0.40;;;17.70;57.60;;;;;;6158730;23;20147;-83
2024/03/19 01:15:02;;;;;;;0.40;0.30;;;17.70;57.60;;;;;;6183514;23;20143;-83
2024/03/19 01:17:29;;;;;;;1.27;0.50;;;17.70;57.70;;;;;;6183729;23;20138;-83
2024/03/19 01:19:56;;;;;;;0.88;0.55;;;17.70;57.70;;;;;;6183347;23;20189;-83
2024/03/19 01:22:21;;;;;;;0.65;0.40;;;17.70;57.60;;;;;;6183410;23;20147;-83
2024/03/19 01:24:47;;;;;;;0.55;0.47;;;17.70;57.80;;;;;;6185357;23;20222;-83
2024/03/19 01:27:13;;;;;;;0.38;0.20;;;17.70;57.60;;;;;;6183646;23;20578;-83
2024/03/19 01:29:39;;;;;;;0.63;0.30;;;17.70;57.60;;;;;;6183252;23;20142;-82
2024/03/19 01:32:05;;;;;;;1.50;0.40;;;17.70;57.70;;;;;;6183320;23;20155;-83
2024/03/19 01:34:32;;;;;;;0.65;0.40;;;17.70;57.60;;;;;;6158596;23;20153;-84
2024/03/19 01:36:58;;;;;;;0.57;0.30;;;17.70;57.60;;;;;;6185310;23;20138;-83
2024/03/19 01:39:24;;;;;;;1.00;0.50;;;17.70;57.80;;;;;;6184669;23;20143;-83
2024/03/19 01:41:53;;;;;;;0.40;0.38;;;17.60;57.70;;;;;;6186746;23;20242;-84
2024/03/19 01:44:19;;;;;;;1.33;0.50;;;17.70;57.70;;;;;;6185484;23;20158;-84
2024/03/19 01:46:45;;;;;;;0.85;0.45;;;17.60;57.60;;;;;;6185194;23;20209;-84
2024/03/19 01:49:12;;;;;;;1.00;0.35;;;17.70;58.60;;;;;;6160351;23;20178;-83
2024/03/19 01:51:38;;;;;;;0.40;0.30;;;17.70;58.00;;;;;;6185137;23;20170;-83
2024/03/19 01:54:03;;;;;;;2.50;0.40;;;17.70;57.60;;;;;;6184840;23;20222;-83
2024/03/19 01:56:30;;;;;;;0.45;0.40;;;17.70;57.60;;;;;;6185461;23;20464;-84
2024/03/19 01:58:56;;;;;;;0.95;0.40;;;17.70;57.80;;;;;;6160383;23;20150;-84
2024/03/19 02:01:22;;;;;;;1.35;0.40;;;17.60;57.90;;;;;;6185130;23;20135;-84
2024/03/19 02:03:48;;;;;;;1.98;0.60;;;17.60;57.90;;;;;;6185354;23;20729;-84
2024/03/19 02:06:15;;;;;;;0.88;0.50;;;17.60;57.60;;;;;;6185162;23;20135;-83
2024/03/19 02:09:03;;;;;;;1.20;0.35;;;17.60;57.80;;;;;;6160471;23;20158;-83
2024/03/19 02:11:30;;;;;;;1.92;0.40;;;17.60;57.90;;;;;;6153860;23;20305;-83
2024/03/19 02:13:56;;;;;;;0.75;0.30;;;17.60;58.00;;;;;;6129478;23;20151;-84
2024/03/19 02:16:22;;;;;;;0.55;0.40;;;17.70;57.80;;;;;;6129635;23;20294;-83
2024/03/19 02:18:57;;;;;;;0.30;0.30;;;17.60;57.70;;;;;;6104696;23;20603;-83
2024/03/19 02:21:25;;;;;;;1.23;0.47;;;17.60;57.60;;;;;;6154404;23;20618;-84
2024/03/19 02:23:53;;;;;;;0.88;0.40;;;17.60;57.80;;;;;;6154044;23;20140;-83
2024/03/19 02:26:18;;;;;;;0.40;0.40;;;17.60;57.60;;;;;;6154368;23;20596;-83
2024/03/19 02:28:44;;;;;;;2.47;0.50;;;17.70;58.00;;;;;;6154006;23;20186;-83
2024/03/19 02:31:10;;;;;;;0.45;0.40;;;17.60;57.90;;;;;;6129126;23;20225;-83
2024/03/19 02:33:36;;;;;;;0.75;0.50;;;17.70;57.80;;;;;;6154056;23;20142;-83
2024/03/19 02:36:02;;;;;;;1.25;0.40;;;17.60;58.00;;;;;;6104862;23;20155;-83
2024/03/19 02:38:27;;;;;;;0.45;0.40;;;17.60;57.90;;;;;;6129207;23;20690;-84
2024/03/19 02:40:54;;;;;;;0.77;0.40;;;17.60;58.30;;;;;;6129485;23;20204;-84
2024/03/19 02:43:22;;;;;;;2.13;0.50;;;17.60;57.70;;;;;;6130771;23;20158;-83
2024/03/19 02:45:48;;;;;;;1.95;0.50;;;17.60;57.80;;;;;;6134460;23;20169;-85
2024/03/19 02:48:18;;;;;;;1.85;0.43;;;17.60;57.80;;;;;;6186254;23;20244;-84
2024/03/19 02:50:45;;;;;;;0.80;0.47;;;17.60;57.70;;;;;;6183959;23;20525;-84
2024/03/19 02:53:12;;;;;;;0.55;0.30;;;17.60;57.70;;;;;;6183993;23;20131;-83
2024/03/19 02:55:38;;;;;;;1.63;0.40;;;17.60;57.70;;;;;;6186209;23;20131;-84
2024/03/19 02:58:04;;;;;;;1.25;0.40;;;17.60;57.80;;;;;;6184589;23;20138;-84
2024/03/19 03:00:30;;;;;;;0.60;0.38;;;17.60;57.70;;;;;;6159677;23;20155;-84
2024/03/19 03:02:55;;;;;;;0.80;0.30;;;17.60;57.70;;;;;;6184689;23;20289;-83
2024/03/19 03:05:21;;;;;;;0.68;0.47;;;17.60;57.90;;;;;;6159638;23;20187;-83
2024/03/19 03:07:47;;;;;;;1.33;0.47;;;17.60;57.80;;;;;;6184409;23;20534;-83
2024/03/19 03:10:13;;;;;;;1.02;0.32;;;17.50;57.90;;;;;;6184397;23;20232;-83
2024/03/19 03:12:39;;;;;;;0.50;0.40;;;17.60;58.00;;;;;;6184341;23;20151;-83
2024/03/19 03:15:05;;;;;;;1.27;0.40;;;17.60;57.80;;;;;;6184356;23;20131;-84
2024/03/19 03:17:32;;;;;;;0.77;0.52;;;17.50;57.90;;;;;;6184372;23;20135;-84
2024/03/19 03:19:59;;;;;;;1.30;0.60;;;17.50;58.00;;;;;;6184167;23;20147;-84
2024/03/19 03:22:25;;;;;;;1.13;0.43;;;17.50;57.90;;;;;;6184461;23;20135;-84
2024/03/19 03:24:51;;;;;;;1.00;0.50;;;17.50;57.90;;;;;;6159480;23;20185;-84
2024/03/19 03:27:17;;;;;;;0.95;0.68;;;17.50;58.00;;;;;;6186160;23;20197;-83
2024/03/19 03:29:46;;;;;;;0.77;0.43;;;17.60;57.70;;;;;;6184558;23;20209;-84
2024/03/19 03:32:11;;;;;;;2.08;0.60;;;17.50;58.00;;;;;;6159348;23;20477;-84
2024/03/19 03:34:37;;;;;;;0.47;0.40;;;17.50;58.00;;;;;;6159265;23;20597;-84
2024/03/19 03:37:06;;;;;;;0.55;0.50;;;17.50;58.00;;;;;;6185712;23;20158;-83
2024/03/19 03:39:32;;;;;;;1.15;0.40;;;17.60;57.80;;;;;;6185973;23;20142;-83
2024/03/19 03:42:02;;;;;;;0.85;0.43;;;17.50;57.70;;;;;;6184142;23;20147;-83
2024/03/19 03:44:29;;;;;;;0.55;0.30;;;17.60;57.60;;;;;;6185438;23;20142;-84
2024/03/19 03:46:55;;;;;;;0.43;0.40;;;17.60;57.70;;;;;;6184152;23;20185;-83
2024/03/19 03:49:21;;;;;;;0.57;0.50;;;17.60;57.60;;;;;;6183931;23;20151;-84
2024/03/19 03:51:47;;;;;;;0.68;0.50;;;17.50;57.90;;;;;;6185465;23;20166;-84
2024/03/19 03:54:13;;;;;;;0.73;0.40;;;17.50;57.70;;;;;;6208460;23;20665;-84
2024/03/19 03:56:39;;;;;;;0.80;0.40;;;17.50;58.00;;;;;;6184241;23;20203;-83
2024/03/19 03:59:05;;;;;;;0.77;0.38;;;17.50;57.90;;;;;;6159043;23;20455;-84
2024/03/19 04:01:31;;;;;;;2.58;0.57;;;17.50;58.00;;;;;;6158501;23;20197;-84
2024/03/19 04:03:57;;;;;;;0.40;0.40;;;17.50;58.00;;;;;;6185309;23;20142;-83
2024/03/19 04:06:22;;;;;;;0.65;0.50;;;17.50;57.90;;;;;;6159062;23;20147;-83
2024/03/19 04:08:48;;;;;;;0.98;0.50;;;17.50;58.00;;;;;;6183822;23;20249;-84
2024/03/19 04:11:14;;;;;;;0.95;0.60;;;17.40;57.90;;;;;;6185156;23;20170;-83
2024/03/19 04:13:40;;;;;;;1.77;0.60;;;17.40;57.80;;;;;;6183969;23;20131;-83
2024/03/19 04:16:06;;;;;;;0.82;0.50;;;17.50;57.80;;;;;;6158928;23;20146;-84
2024/03/19 04:18:32;;;;;;;1.75;0.60;;;17.50;57.90;;;;;;6183812;23;20146;-84
2024/03/19 04:20:58;;;;;;;1.33;0.50;;;17.50;57.70;;;;;;6184289;23;20439;-84
2024/03/19 04:23:24;;;;;;;1.35;0.50;;;17.40;57.70;;;;;;6183639;23;20150;-83
2024/03/19 04:25:49;;;;;;;1.33;0.50;;;17.50;57.90;;;;;;6183797;23;20519;-84
2024/03/19 04:28:15;;;;;;;0.98;0.50;;;17.50;57.90;;;;;;6183722;23;20439;-84
2024/03/19 04:30:41;;;;;;;0.77;0.40;;;17.50;57.90;;;;;;6183386;23;20265;-84
2024/03/19 04:33:07;;;;;;;0.88;0.70;;;17.40;57.70;;;;;;6208824;23;20150;-84
2024/03/19 04:35:37;;;;;;;0.68;0.40;;;17.50;57.90;;;;;;6185197;23;20135;-83
2024/03/19 04:38:04;;;;;;;0.63;0.40;;;17.50;57.90;;;;;;6108935;23;20154;-83
2024/03/19 04:40:31;;;;;;;0.50;0.50;;;17.50;57.80;;;;;;6184030;23;20135;-83
2024/03/19 04:42:56;;;;;;;1.00;0.50;;;17.40;57.90;;;;;;6185135;23;20213;-83
2024/03/19 04:45:22;;;;;;;0.60;0.50;;;17.50;57.80;;;;;;6184151;23;20557;-83
2024/03/19 04:47:48;;;;;;;1.70;0.70;;;17.40;57.70;;;;;;6183639;23;20155;-83
2024/03/19 04:50:14;;;;;;;0.82;0.50;;;17.40;57.90;;;;;;6208547;23;20206;-83
2024/03/19 04:52:40;;;;;;;1.58;0.63;;;17.40;57.80;;;;;;6183628;23;20178;-83
2024/03/19 04:55:07;;;;;;;0.93;0.55;;;17.40;57.90;;;;;;6182763;23;20135;-82
2024/03/19 04:57:34;;;;;;;0.63;0.60;;;17.40;58.00;;;;;;6185035;23;20135;-83
2024/03/19 05:00:00;;;;;;;0.40;0.40;;;17.40;57.90;;;;;;6183505;23;20147;-83
2024/03/19 05:02:26;;;;;;;0.98;0.65;;;17.40;57.90;;;;;;6183472;23;20202;-83
2024/03/19 05:04:54;;;;;;;2.33;0.57;;;17.40;57.90;;;;;;6183552;23;20582;-84
2024/03/19 05:07:20;;;;;;;0.55;0.55;;;17.40;57.80;;;;;;6157918;23;20161;-83
2024/03/19 05:09:46;;;;;;;1.58;0.55;;;17.40;57.90;;;;;;6185487;23;20210;-83
2024/03/19 05:12:14;;;;;;;1.23;0.40;;;17.40;57.70;;;;;;6160252;23;20154;-84
2024/03/19 05:14:41;;;;;;;0.80;0.60;;;17.40;57.80;;;;;;6160634;23;20586;-83
2024/03/19 05:17:08;;;;;;;0.52;0.40;;;17.40;57.80;;;;;;6136137;23;20154;-83
2024/03/19 05:19:37;;;;;;;0.40;0.40;;;17.40;58.30;;;;;;6185278;23;20146;-84
2024/03/19 05:22:07;;;;;;;0.70;0.57;;;17.40;57.70;;;;;;6185370;23;20145;-84
2024/03/19 05:24:36;;;;;;;1.40;0.60;;;17.40;57.60;;;;;;6135328;23;20154;-84
2024/03/19 05:27:03;;;;;;;0.50;0.50;;;17.40;57.80;;;;;;6159841;23;20154;-84
2024/03/19 05:29:32;;;;;;;1.20;0.40;;;17.50;57.70;;;;;;6185277;23;20555;-82
2024/03/19 05:32:09;;;;;;;1.25;0.68;;;17.40;57.50;;;;;;6185131;23;20170;-85
2024/03/19 05:34:36;;;;;;;0.40;0.40;;;17.50;57.40;;;;;;6135629;23;20150;-84
2024/03/19 05:37:02;;;;;;;0.40;0.40;;;17.50;57.60;;;;;;6185555;23;20521;-84
2024/03/19 05:39:28;;;;;;;0.57;0.50;;;17.40;57.50;;;;;;6185646;23;20139;-83
2024/03/19 05:41:53;;;;;;;1.02;0.50;;;17.50;57.50;;;;;;6210221;23;20162;-84
2024/03/19 05:44:20;;;;;;;1.00;0.70;;;17.50;57.50;;;;;;6184717;23;20871;-84
2024/03/19 05:46:46;;;;;;;0.60;0.50;;;17.40;57.60;;;;;;6185031;23;20155;-84
2024/03/19 05:49:12;;;;;;;1.42;0.65;;;17.40;57.60;;;;;;6185320;23;20211;-83
2024/03/19 05:51:37;;;;;;;0.60;0.60;;;17.50;57.50;;;;;;6186344;23;20188;-84
2024/03/19 05:54:06;;;;;;;2.05;0.68;;;17.50;57.50;;;;;;6190133;23;20130;-83
2024/03/19 05:56:32;;;;;;;1.88;0.68;;;17.50;58.20;;;;;;6195354;23;20138;-84
2024/03/19 05:58:58;;;;;;;0.60;0.60;;;17.50;57.30;;;;;;6160332;23;20158;-84
2024/03/19 06:01:24;;;;;;;2.08;0.52;;;17.50;57.40;;;;;;6185228;23;20206;-84
2024/03/19 06:03:51;;;;;;;0.70;0.52;;;17.50;57.40;;;;;;6185240;23;20522;-84
2024/03/19 06:06:19;;;;;;;0.65;0.47;;;17.50;57.30;;;;;;6184690;23;20143;-84
2024/03/19 06:08:53;;;;;;;1.00;0.50;;;17.50;57.20;;;;;;6184401;23;20145;-84
2024/03/19 06:11:22;;;;;;;0.70;0.50;;;17.50;57.20;;;;;;6184883;23;20236;-85
2024/03/19 06:13:53;;;;;;;0.70;0.60;;;17.50;57.20;;;;;;6210013;23;20593;-84
2024/03/19 06:16:22;;;;;;;1.05;0.73;;;17.60;57.00;;;;;;6160904;23;20574;-85
2024/03/19 06:18:48;;;;;;;0.70;0.70;;;17.60;57.00;;;;;;6154434;23;20151;-84
2024/03/19 06:21:17;;;;;;;1.40;0.80;;;17.60;56.80;;;;;;6105739;23;20182;-84
2024/03/19 06:23:42;;;;;;;0.40;0.40;;;17.60;56.90;;;;;;6072103;23;20164;-84
2024/03/19 06:26:15;;;;;;;0.90;0.50;;;17.60;57.10;;;;;;6071716;23;20570;-84
2024/03/19 06:29:10;;;;;;;1.05;0.60;;;17.60;57.00;;;;;;6071289;23;20160;-84
2024/03/19 06:31:36;;;;;;;0.90;0.70;;;17.60;56.90;;;;;;6093858;23;20195;-84
2024/03/19 06:34:04;;;;;;;0.65;0.50;;;17.50;56.60;;;;;;6071903;23;20231;-84
2024/03/19 06:36:31;;;;;;;3.15;0.80;;;17.70;56.80;;;;;;6071505;23;20208;-84
2024/03/19 06:38:57;;;;;;;0.85;0.80;;;17.70;56.40;;;;;;6023554;23;20153;-84
2024/03/19 06:41:23;;;;;;;1.33;0.57;;;17.70;56.60;;;;;;6071408;23;20243;-83
2024/03/19 06:43:49;;;;;;;2.17;0.80;;;17.70;56.30;;;;;;6047890;23;20160;-83
2024/03/19 06:46:15;;;;;;;1.27;0.55;;;17.70;56.60;;;;;;6071498;23;20165;-84
2024/03/19 06:48:45;;;;;;;1.02;0.60;;;17.70;56.30;;;;;;6048969;23;20176;-84
2024/03/19 06:51:11;;;;;;;1.08;0.70;;;17.70;56.60;;;;;;6072141;23;20190;-84
2024/03/19 06:53:38;;;;;;;0.52;0.52;;;17.70;56.50;;;;;;6073259;23;20228;-84
2024/03/19 06:56:09;;;;;;;0.75;0.60;;;17.70;56.50;;;;;;6130513;23;20159;-84
2024/03/19 06:58:38;;;;;;;1.17;0.70;;;17.70;56.30;;;;;;6179689;23;20155;-83
2024/03/19 07:01:04;;;;;;;0.88;0.60;;;17.80;56.30;;;;;;6179774;23;20147;-83
2024/03/19 07:03:30;;;;;;;0.50;0.50;;;17.80;56.30;;;;;;6179576;23;20191;-85
2024/03/19 07:05:56;;;;;;;3.17;0.70;;;17.70;56.60;;;;;;6179879;23;20173;-83
2024/03/19 07:08:22;;;;;;;0.88;0.50;;;17.60;56.80;;;;;;6154181;23;20155;-84
2024/03/19 07:10:48;;;;;;;0.85;0.70;;;17.70;56.60;;;;;;6179157;23;20234;-84
2024/03/19 07:13:15;;;;;;;1.13;0.77;;;17.70;56.30;;;;;;6203349;23;20151;-83
2024/03/19 07:15:44;;;;;;;1.08;0.70;;;17.70;56.40;;;;;;6184418;23;20137;-82
2024/03/19 07:18:09;;;;;;;1.35;0.60;;;17.70;56.10;;;;;;6184048;23;20214;-83
2024/03/19 07:20:38;;;;;;;0.93;0.68;;;17.70;56.00;;;;;;6184367;23;20135;-84
2024/03/19 07:23:06;;;;;;;1.17;0.60;;;17.70;55.80;;;;;;6186278;23;20132;-85
2024/03/19 07:25:33;;;;;;;1.02;0.75;;;17.80;55.90;;;;;;6161383;23;20155;-83
2024/03/19 07:27:59;;;;;;;1.65;0.60;;;17.90;55.20;;;;;;6185815;23;20134;-84
2024/03/19 07:30:26;;;;;;;0.80;0.80;;;17.90;55.20;;;;;;6185919;23;20169;-84
2024/03/19 07:32:52;;;;;;;1.15;0.70;;;17.90;55.10;;;;;;6161287;23;20147;-84
2024/03/19 07:35:17;;;;;;;0.93;0.60;;;17.90;55.10;;;;;;6160491;23;20158;-84
2024/03/19 07:37:43;;;;;;;0.68;0.60;;;17.90;55.40;;;;;;6159698;23;20537;-83
2024/03/19 07:40:10;;;;;;;0.80;0.57;;;17.90;56.10;;;;;;6184222;23;20217;-84
2024/03/19 07:42:42;;;;;;;0.98;0.70;;;17.90;55.20;;;;;;6160219;23;20155;-83
2024/03/19 07:45:11;;;;;;;1.30;0.70;;;17.90;55.40;;;;;;6184685;23;20170;-84
2024/03/19 07:47:37;;;;;;;0.60;0.50;;;17.80;55.40;;;;;;6184267;23;20555;-83
2024/03/19 07:50:10;;;;;;;0.70;0.43;;;17.90;55.90;;;;;;6160691;23;20182;-85
2024/03/19 07:52:36;;;;;;;1.30;0.60;;;17.90;55.70;;;;;;6135668;23;20165;-84
2024/03/19 07:55:03;;;;;;;0.63;0.60;;;17.80;55.40;;;;;;6161039;23;20225;-85
2024/03/19 07:57:33;;;;;;;0.63;0.50;;;17.90;55.20;;;;;;6187009;23;20489;-85
2024/03/19 08:00:11;;;;;;;1.25;0.70;;;17.80;55.20;;;;;;6111584;23;20161;-84
2024/03/19 08:02:39;;;;;;;0.98;0.70;;;17.80;55.50;;;;;;6163869;23;20194;-85
2024/03/19 08:05:07;;;;;;;0.93;0.65;;;17.80;55.20;;;;;;6186433;23;20270;-84
2024/03/19 08:07:36;;;;;;;1.35;0.70;;;17.90;55.20;;;;;;6187869;23;20131;-84
2024/03/19 08:10:04;;;;;;;0.82;0.60;;;18.00;55.20;;;;;;6187549;23;20154;-84
2024/03/19 08:12:37;;;;;;;0.77;0.50;;;17.90;54.60;;;;;;6186586;23;20139;-84
2024/03/19 08:15:03;;;;;;;0.60;0.45;;;18.00;53.50;;;;;;6185962;23;20570;-82
2024/03/19 08:17:30;;;;;;;1.15;0.60;;;18.10;53.40;;;;;;6160834;23;20174;-83
2024/03/19 08:19:56;;;;;;;0.70;0.70;;;18.10;53.90;;;;;;6099973;23;20152;-83
2024/03/19 08:22:23;;;;;;;0.65;0.60;;;18.20;53.70;;;;;;6125058;23;20175;-84
2024/03/19 08:24:53;;;;;;;1.30;0.70;;;18.20;54.00;;;;;;6125149;23;20152;-83
2024/03/19 08:27:20;;;;;;;0.70;0.68;;;18.20;53.80;;;;;;6125420;23;20488;-82
2024/03/19 08:29:49;;;;;;;1.05;0.90;;;18.20;54.10;;;;;;6124937;23;20182;-82
2024/03/19 08:32:18;;;;;;;0.68;0.50;;;18.20;54.00;;;;;;6125465;23;20136;-84
2024/03/19 08:34:46;;;;;;;0.40;0.40;;;18.20;53.90;;;;;;6125073;23;20182;-84
2024/03/19 08:37:16;;;;;;;0.50;0.50;;;18.10;54.30;;;;;;6124570;23;20140;-83
2024/03/19 08:39:44;;;;;;;1.20;0.65;;;18.00;54.90;;;;;;6125100;23;20181;-84
2024/03/19 08:42:10;;;;;;;1.52;0.77;;;18.00;54.60;;;;;;6100214;23;20298;-83
2024/03/19 08:44:36;;;;;;;0.73;0.55;;;18.10;54.30;;;;;;6125457;23;20518;-83
2024/03/19 08:47:05;;;;;;;1.52;0.63;;;18.10;54.50;;;;;;6126292;23;20140;-83
2024/03/19 08:49:32;;;;;;;0.63;0.50;;;18.10;53.80;;;;;;6099328;23;20604;-84
2024/03/19 08:54:49;;;;;;;2.05;0.68;;;18.20;54.40;;;;;;6094441;23;20204;-83
2024/03/19 08:57:18;;;;;;;0.80;0.60;;;18.10;54.80;;;;;;6072497;23;20183;-84
2024/03/19 08:59:46;;;;;;;0.50;0.50;;;18.00;54.90;;;;;;6072448;23;20153;-84
2024/03/19 09:02:12;;;;;;;0.70;0.63;;;18.00;54.80;;;;;;6035655;23;20200;-84
2024/03/19 09:04:41;;;;;;;0.75;0.55;;;18.10;55.10;;;;;;6020516;23;20181;-84
2024/03/19 09:07:07;;;;;;;0.63;0.60;;;18.10;54.10;;;;;;6043825;23;20616;-83
2024/03/19 09:09:33;;;;;;;0.63;0.50;;;18.30;54.30;;;;;;6068430;23;20481;-84
2024/03/19 09:11:58;;;;;;;0.43;0.43;;;18.10;54.80;;;;;;6019563;23;20212;-84
2024/03/19 09:14:27;;;;;;;0.50;0.50;;;18.10;55.20;;;;;;6019724;23;20222;-85
2024/03/19 09:16:54;;;;;;;2.53;0.63;;;18.00;55.10;;;;;;6020422;23;20146;-84
2024/03/19 09:19:20;;;;;;;0.63;0.60;;;18.00;55.30;;;;;;6066766;23;20163;-84
2024/03/19 09:21:46;;;;;;;1.48;0.63;;;18.10;55.00;;;;;;6020357;23;20142;-83
2024/03/19 09:24:15;;;;;;;0.50;0.50;;;18.00;54.80;;;;;;6043618;23;20142;-84
2024/03/19 09:26:44;;;;;;;0.55;0.47;;;18.10;54.80;;;;;;5992690;23;20153;-84
2024/03/19 09:29:10;;;;;;;0.73;0.40;;;18.10;55.00;;;;;;6015176;23;20546;-83
2024/03/19 09:31:35;;;;;;;0.73;0.57;;;18.00;55.00;;;;;;6071859;23;20231;-83
2024/03/19 09:34:01;;;;;;;0.73;0.50;;;18.00;54.70;;;;;;6133440;23;20155;-83
2024/03/19 09:36:28;;;;;;;1.40;0.73;;;18.10;55.00;;;;;;6131541;23;20140;-83
2024/03/19 09:38:58;;;;;;;2.17;0.60;;;18.00;55.00;;;;;;6155726;23;20139;-82
2024/03/19 09:42:01;;;;;;;0.80;0.50;;;18.10;55.30;;;;;;6129390;23;20159;-82
2024/03/19 09:44:36;;;;;;;1.15;0.50;;;18.00;54.70;;;;;;6084528;23;20169;-84
2024/03/19 09:47:04;;;;;;;0.90;0.60;;;18.00;55.10;;;;;;6147544;23;20244;-81
2024/03/19 09:49:34;;;;;;;0.88;0.63;;;18.20;54.70;;;;;;6124422;23;20247;-84
2024/03/19 09:52:45;;;;;;;1.42;0.60;;;18.10;54.90;;;;;;6100108;23;20242;-83
2024/03/19 09:54:56;;;;;;;1.48;0.60;;;18.20;54.80;;;;;;6112192;23;20152;-84
2024/03/19 09:57:24;;;;;;;1.23;0.60;;;18.20;54.90;;;;;;6124586;23;20291;-84
2024/03/19 09:59:52;;;;;;;3.38;0.90;;;18.30;54.00;;;;;;6124874;23;20159;-84
2024/03/19 10:02:21;;;;;;;1.35;0.68;;;18.20;54.70;;;;;;6145333;23;20190;-84
2024/03/19 10:05:15;;;;;;;2.42;0.50;;;18.30;53.90;;;;;;6185562;23;20151;-84
2024/03/19 10:07:44;;;;;;;2.00;0.70;;;18.40;53.90;;;;;;6113825;23;20151;-84
2024/03/19 10:10:13;;;;;;;1.27;0.60;;;18.40;53.60;;;;;;6184852;23;20167;-84
2024/03/19 10:12:43;;;;;;;0.52;0.50;;;18.40;53.90;;;;;;6158321;23;20159;-83
2024/03/19 10:15:20;;;;;;;0.95;0.60;;;18.40;53.80;;;;;;6160033;23;20154;-84
2024/03/19 10:17:50;;;;;;;1.00;0.70;;;18.40;54.00;;;;;;6125723;23;20159;-85
2024/03/19 10:20:28;;;;;;;0.82;0.68;;;18.40;53.60;;;;;;6076968;23;20167;-85
2024/03/19 10:23:01;;;;;;;1.13;0.70;;;18.40;53.90;;;;;;6054088;23;20152;-84
2024/03/19 10:25:33;;;;;;;0.68;0.57;;;18.40;53.90;;;;;;6101381;23;20141;-85
2024/03/19 10:28:05;;;;;;;0.70;0.50;;;18.40;53.80;;;;;;6053688;23;20159;-84
2024/03/19 10:30:36;;;;;;;0.60;0.60;;;18.40;53.50;;;;;;6064246;23;20241;-85
2024/03/19 10:33:14;;;;;;;0.73;0.50;;;18.50;53.30;;;;;;6130179;23;20148;-84
2024/03/19 10:36:07;;;;;;;1.75;0.60;;;18.60;52.70;;;;;;6106768;23;20543;-83
2024/03/19 10:38:35;;;;;;;1.67;0.65;;;18.60;52.70;;;;;;6129098;23;20166;-84
2024/03/19 10:41:23;;;;;;;0.70;0.60;;;18.60;53.00;;;;;;6106257;23;20487;-84
2024/03/19 10:44:06;;;;;;;0.65;0.60;;;18.60;53.20;;;;;;6155148;23;20163;-83
2024/03/19 10:46:33;;;;;;;0.60;0.47;;;18.50;53.50;;;;;;6109281;23;20136;-84
2024/03/19 10:49:15;;;;;;;0.73;0.60;;;18.50;53.00;;;;;;6083203;23;20156;-84
2024/03/19 10:52:16;;;;;;;0.80;0.40;;;18.50;53.40;;;;;;6071591;23;20187;-84
2024/03/19 10:54:48;;;;;;;0.60;0.60;;;18.50;53.70;;;;;;6066530;23;20157;-83
2024/03/19 10:58:01;;;;;;;1.75;0.60;;;18.40;53.60;;;;;;6071074;23;20184;-84
2024/03/19 11:01:09;;;;;;;0.68;0.50;;;18.40;53.80;;;;;;6070564;23;20613;-83
2024/03/19 11:03:48;;;;;;;1.42;0.60;;;18.40;53.70;;;;;;6037166;23;20170;-84
2024/03/19 11:06:49;;;;;;;1.95;0.60;;;18.50;53.20;;;;;;6008523;23;20185;-83
2024/03/19 11:09:37;;;;;;;4.70;0.60;;;18.60;52.90;;;;;;6037544;23;20601;-84
2024/03/19 11:12:17;;;;;;;0.65;0.40;;;18.60;53.00;;;;;;5970020;23;20185;-84
2024/03/19 11:14:59;;;;;;;0.60;0.52;;;18.40;53.20;;;;;;5929750;24;20160;-83
2024/03/19 11:17:51;;;;;;;0.50;0.40;;;18.50;53.40;;;;;;5906653;24;20166;-85
2024/03/19 11:20:44;;;;;;;0.60;0.45;;;18.40;53.60;;;;;;5934239;24;20235;-84
2024/03/19 11:23:16;;;;;;;0.50;0.50;;;18.40;53.80;;;;;;5874699;24;20169;-84
2024/03/19 11:25:49;;;;;;;0.40;0.40;;;18.40;53.30;;;;;;5903536;24;20160;-85
2024/03/19 11:28:31;;;;;;;0.65;0.57;;;18.50;53.30;;;;;;5962210;24;20191;-85
2024/03/19 11:31:52;;;;;;;4.13;0.60;;;18.50;53.00;;;;;;5980818;24;20235;-85
2024/03/19 11:34:23;;;;;;;1.02;0.60;;;18.60;53.00;;;;;;5925238;24;20162;-82
2024/03/19 11:37:00;;;;;;;0.70;0.50;;;18.50;53.40;;;;;;5981053;24;20268;-84
2024/03/19 11:39:27;;;;;;;0.50;0.50;;;18.50;53.20;;;;;;5994119;23;20585;-84
2024/03/19 11:41:54;;;;;;;0.50;0.50;;;18.50;53.30;;;;;;6037289;23;20162;-84
2024/03/19 11:44:25;;;;;;;0.75;0.40;;;18.50;53.20;;;;;;6013874;23;20661;-84
2024/03/19 11:46:54;;;;;;;0.70;0.50;;;18.60;53.00;;;;;;6051943;23;20252;-84
2024/03/19 11:49:25;;;;;;;1.00;0.47;;;18.50;53.40;;;;;;6100615;23;20160;-84
2024/03/19 11:52:06;;;;;;;0.55;0.50;;;18.50;53.40;;;;;;6099381;23;20904;-84
2024/03/19 11:54:40;;;;;;;0.50;0.50;;;18.50;53.10;;;;;;6100199;23;20226;-86
2024/03/19 11:57:16;;;;;;;0.60;0.50;;;18.50;53.20;;;;;;6075380;23;20143;-85
2024/03/19 11:59:48;;;;;;;1.67;0.50;;;18.60;53.00;;;;;;6091586;23;20142;-84
2024/03/19 12:02:14;;;;;;;0.50;0.50;;;18.60;53.00;;;;;;6157648;23;20197;-85
2024/03/19 12:04:56;;;;;;;0.50;0.45;;;18.50;52.90;;;;;;6136329;23;20238;-85
2024/03/19 12:08:08;;;;;;;0.50;0.50;;;18.60;52.80;;;;;;6138430;23;20142;-84
2024/03/19 12:10:42;;;;;;;0.70;0.47;;;18.60;52.60;;;;;;5983889;23;20191;-84
2024/03/19 12:13:57;;;;;;;1.27;0.52;;;18.60;52.70;;;;;;5985938;23;20600;-84
2024/03/19 12:16:26;;;;;;;2.92;0.60;;;18.60;52.70;;;;;;5898467;24;20187;-84
2024/03/19 12:18:55;;;;;;;1.13;0.60;;;18.50;52.80;;;;;;5848004;24;20165;-83
2024/03/19 12:21:43;;;;;;;0.93;0.65;;;18.60;52.80;;;;;;5825237;24;20166;-84
2024/03/19 12:24:17;;;;;;;1.30;0.40;;;18.60;52.50;;;;;;5795734;24;20233;-84
2024/03/19 12:26:49;;;;;;;0.77;0.40;;;18.70;52.60;;;;;;5769068;24;20191;-84
2024/03/19 12:29:18;;;;;;;0.70;0.70;;;18.60;52.60;;;;;;5791328;24;20171;-84
2024/03/19 12:35:05;;;;;;;1.25;0.40;;;18.70;52.30;;;;;;5739376;24;20172;-84
2024/03/19 12:37:31;;;;;;;0.50;0.50;;;18.70;52.20;;;;;;5759977;24;20390;-85
2024/03/19 12:40:18;;;;;;;0.60;0.60;;;18.70;52.60;;;;;;5742168;24;20447;-84
2024/03/19 12:42:46;;;;;;;0.40;0.40;;;18.60;52.60;;;;;;5761707;24;20181;-84
2024/03/19 12:45:15;;;;;;;1.17;0.60;;;18.70;52.20;;;;;;5769729;24;20154;-84
2024/03/19 12:47:45;;;;;;;0.73;0.40;;;18.70;52.60;;;;;;5963393;23;20157;-84
2024/03/19 12:50:14;;;;;;;0.73;0.60;;;18.70;52.50;;;;;;6091294;23;20199;-84
2024/03/19 12:52:40;;;;;;;0.50;0.50;;;18.70;52.30;;;;;;6101096;23;20171;-84
2024/03/19 12:55:08;;;;;;;2.58;0.60;;;18.70;52.20;;;;;;6075914;23;20287;-84
2024/03/19 12:57:39;;;;;;;2.88;0.40;;;18.70;52.00;;;;;;6111479;23;20155;-85
2024/03/19 13:00:17;;;;;;;0.82;0.40;;;18.80;52.10;;;;;;6158645;23;20174;-84
2024/03/19 13:02:54;;;;;;;0.43;0.40;;;18.90;51.70;;;;;;6184228;23;20625;-84
2024/03/19 13:05:30;;;;;;;1.25;0.65;;;18.80;52.20;;;;;;6162141;23;20154;-84
2024/03/19 13:07:56;;;;;;;2.40;0.68;;;18.80;52.30;;;;;;6158639;23;20241;-84